createdAt,value
2023-04-07T00:01:15.700Z,52.48
2023-04-07T00:03:46.678Z,52.20
2023-04-07T00:06:17.674Z,52.09
2023-04-07T00:08:48.467Z,52.24
2023-04-07T00:11:18.996Z,52.28
2023-04-07T00:13:49.868Z,52.02
2023-04-07T00:16:20.878Z,52.08
2023-04-07T00:18:51.648Z,52.31
2023-04-07T00:21:22.395Z,52.08
2023-04-07T00:23:53.759Z,52.11
2023-04-07T00:26:25.710Z,52.47
2023-04-07T00:28:56.534Z,52.36
2023-04-07T00:31:27.432Z,51.93
2023-04-07T00:33:58.248Z,52.33
2023-04-07T00:36:29.285Z,52.18
2023-04-07T00:39:00.040Z,52.26
2023-04-07T00:41:30.862Z,52.28
2023-04-07T00:44:01.764Z,52.21
2023-04-07T00:46:32.608Z,52.22
2023-04-07T00:49:03.437Z,52.48
2023-04-07T00:51:34.254Z,52.29
2023-04-07T00:54:05.113Z,52.31
2023-04-07T00:56:35.927Z,52.31
2023-04-07T00:59:06.767Z,51.81
2023-04-07T01:01:41.175Z,52.23
2023-04-07T01:04:14.537Z,52.35
2023-04-07T01:06:45.779Z,52.19
2023-04-07T01:09:18.169Z,52.38
2023-04-07T01:11:50.175Z,52.13
2023-04-07T01:14:21.006Z,52.51
2023-04-07T01:16:53.943Z,52.28
2023-04-07T01:19:31.642Z,52.14
2023-04-07T01:22:02.410Z,52.17
2023-04-07T01:24:48.097Z,52.39
2023-04-07T01:27:23.097Z,52.46
2023-04-07T01:29:53.968Z,52.55
2023-04-07T01:32:25.259Z,52.46
2023-04-07T01:34:56.044Z,52.30
2023-04-07T01:37:27.067Z,52.56
2023-04-07T01:39:57.880Z,52.45
2023-04-07T01:42:28.720Z,52.60
2023-04-07T01:44:59.563Z,52.61
2023-04-07T01:47:31.387Z,52.54
2023-04-07T01:50:02.982Z,52.75
2023-04-07T01:52:34.158Z,52.79
2023-04-07T01:55:05.022Z,52.68
2023-04-07T01:57:35.914Z,52.52
2023-04-07T02:00:07.861Z,52.73
2023-04-07T02:02:39.020Z,52.76
2023-04-07T02:05:11.042Z,53.23
2023-04-07T02:07:42.977Z,53.00
2023-04-07T02:10:14.169Z,53.33
2023-04-07T02:12:44.904Z,53.00
2023-04-07T02:15:15.749Z,53.32
2023-04-07T02:17:48.048Z,53.33
2023-04-07T02:20:19.031Z,53.22
2023-04-07T02:22:49.809Z,53.43
2023-04-07T02:25:24.705Z,53.14
2023-04-07T02:27:55.944Z,53.43
2023-04-07T02:30:26.932Z,53.35
2023-04-07T02:32:57.800Z,53.38
2023-04-07T02:35:28.616Z,53.37
2023-04-07T02:37:59.341Z,53.32
2023-04-07T02:40:30.148Z,53.65
2023-04-07T02:43:00.885Z,53.59
2023-04-07T02:45:31.632Z,53.68
2023-04-07T02:48:02.568Z,53.81
2023-04-07T02:50:33.353Z,53.55
2023-04-07T02:53:04.233Z,53.66
2023-04-07T02:55:35.147Z,53.64
2023-04-07T02:58:05.969Z,54.06
2023-04-07T03:00:36.877Z,53.86
2023-04-07T03:03:07.985Z,53.63
2023-04-07T03:05:39.070Z,53.93
2023-04-07T03:08:11.642Z,53.81
2023-04-07T03:10:44.156Z,54.06
2023-04-07T03:13:16.641Z,54.38
2023-04-07T03:15:47.461Z,54.31
2023-04-07T03:18:18.280Z,54.06
2023-04-07T03:20:49.505Z,54.05
2023-04-07T03:23:20.294Z,54.04
2023-04-07T03:25:51.285Z,54.15
2023-04-07T03:28:22.643Z,54.04
2023-04-07T03:30:53.399Z,54.28
2023-04-07T03:33:24.157Z,54.52
2023-04-07T03:35:55.035Z,54.42
2023-04-07T03:38:25.861Z,54.56
2023-04-07T03:40:56.626Z,54.38
2023-04-07T03:43:27.413Z,54.23
2023-04-07T03:45:58.239Z,54.29
2023-04-07T03:48:29.347Z,54.40
2023-04-07T03:51:00.757Z,55.09
2023-04-07T03:53:31.580Z,54.85
2023-04-07T03:56:02.384Z,54.48
2023-04-07T03:58:33.274Z,54.69
2023-04-07T04:01:04.094Z,55.09
2023-04-07T04:03:35.908Z,54.97
2023-04-07T04:06:07.202Z,55.09
2023-04-07T04:08:38.057Z,55.04
2023-04-07T04:11:08.818Z,55.02
2023-04-07T04:13:39.545Z,55.08
2023-04-07T04:16:12.361Z,54.99
2023-04-07T04:18:44.851Z,55.43
2023-04-07T04:21:15.813Z,55.35
2023-04-07T04:23:46.557Z,55.69
2023-04-07T04:26:17.378Z,55.62
2023-04-07T04:28:48.038Z,55.78
2023-04-07T04:31:18.930Z,55.84
2023-04-07T04:33:49.753Z,55.77
2023-04-07T04:36:20.642Z,55.51
2023-04-07T04:38:51.402Z,55.34
2023-04-07T04:41:22.087Z,55.51
2023-04-07T04:43:52.921Z,55.60
2023-04-07T04:46:23.735Z,55.64
2023-04-07T04:48:54.605Z,55.55
2023-04-07T04:51:26.328Z,55.39
2023-04-07T04:53:57.165Z,55.41
2023-04-07T04:56:28.044Z,55.52
2023-04-07T04:58:58.901Z,55.42
2023-04-07T05:01:31.477Z,55.62
2023-04-07T05:04:03.852Z,55.72
2023-04-07T05:06:34.963Z,55.64
2023-04-07T05:09:05.797Z,55.82
2023-04-07T05:11:36.700Z,56.06
2023-04-07T05:14:07.326Z,55.81
2023-04-07T05:16:38.120Z,55.82
2023-04-07T05:19:08.896Z,55.91
2023-04-07T05:21:39.772Z,55.86
2023-04-07T05:24:10.591Z,56.14
2023-04-07T05:26:41.402Z,55.97
2023-04-07T05:29:12.204Z,56.04
2023-04-07T05:31:43.037Z,55.88
2023-04-07T05:34:13.979Z,56.13
2023-04-07T05:36:44.799Z,56.24
2023-04-07T05:39:15.643Z,55.97
2023-04-07T05:41:46.746Z,56.04
2023-04-07T05:44:17.496Z,56.05
2023-04-07T05:46:48.257Z,56.21
2023-04-07T05:49:20.376Z,55.84
2023-04-07T05:51:51.731Z,56.15
2023-04-07T05:54:22.636Z,56.11
2023-04-07T05:56:53.485Z,56.33
2023-04-07T05:59:24.280Z,56.20
2023-04-07T06:01:55.355Z,56.40
2023-04-07T06:04:26.256Z,56.28
2023-04-07T06:06:57.032Z,56.42
2023-04-07T06:09:27.910Z,56.70
2023-04-07T06:11:59.105Z,56.63
2023-04-07T06:14:29.909Z,56.16
2023-04-07T06:17:00.893Z,56.72
2023-04-07T06:19:31.820Z,56.45
2023-04-07T06:22:02.655Z,56.51
2023-04-07T06:24:33.380Z,56.48
2023-04-07T06:27:04.113Z,56.40
2023-04-07T06:29:36.856Z,56.17
2023-04-07T06:32:07.805Z,56.63
2023-04-07T06:34:38.588Z,56.16
2023-04-07T06:37:09.474Z,56.21
2023-04-07T06:39:40.609Z,55.93
2023-04-07T06:42:11.406Z,56.27
2023-04-07T06:44:42.164Z,56.06
2023-04-07T06:47:13.065Z,56.07
2023-04-07T06:49:43.906Z,55.80
2023-04-07T06:52:14.614Z,55.61
2023-04-07T06:54:45.242Z,55.52
2023-04-07T06:57:16.093Z,55.71
2023-04-07T06:59:47.394Z,55.73
2023-04-07T07:02:18.496Z,55.57
2023-04-07T07:04:49.776Z,55.52
2023-04-07T07:07:20.876Z,55.70
2023-04-07T07:09:51.747Z,55.55
2023-04-07T07:12:22.549Z,55.37
2023-04-07T07:14:53.299Z,55.56
2023-04-07T07:17:24.237Z,55.52
2023-04-07T07:19:55.278Z,55.53
2023-04-07T07:22:26.874Z,55.27
2023-04-07T07:24:57.705Z,54.80
2023-04-07T07:27:28.504Z,54.53
2023-04-07T07:29:59.344Z,54.65
2023-04-07T07:32:30.073Z,54.57
2023-04-07T07:35:00.942Z,54.04
2023-04-07T07:37:31.933Z,54.04
2023-04-07T07:40:02.927Z,54.16
2023-04-07T07:42:33.743Z,53.88
2023-04-07T07:45:04.734Z,53.96
2023-04-07T07:47:37.828Z,54.12
2023-04-07T07:50:09.244Z,54.00
2023-04-07T07:52:40.165Z,53.81
2023-04-07T07:55:11.023Z,53.53
2023-04-07T07:57:41.787Z,53.53
2023-04-07T08:00:13.620Z,53.39
2023-04-07T08:02:44.576Z,53.51
2023-04-07T08:05:15.642Z,53.60
2023-04-07T08:07:47.080Z,53.42
2023-04-07T08:10:17.918Z,53.11
2023-04-07T08:12:48.716Z,53.19
2023-04-07T08:15:19.455Z,53.13
2023-04-07T08:17:50.419Z,52.74
2023-04-07T08:20:21.217Z,52.53
2023-04-07T08:22:52.034Z,52.52
2023-04-07T08:25:22.889Z,52.07
2023-04-07T08:27:53.723Z,52.26
2023-04-07T08:30:24.728Z,52.23
2023-04-07T08:32:55.514Z,52.35
2023-04-07T08:35:26.261Z,52.01
2023-04-07T08:37:57.179Z,51.88
2023-04-07T08:40:28.051Z,52.05
2023-04-07T08:42:58.939Z,51.83
2023-04-07T08:45:29.790Z,51.82
2023-04-07T08:48:00.664Z,51.65
2023-04-07T08:50:31.761Z,51.64
2023-04-07T08:53:02.470Z,51.77
2023-04-07T08:55:33.259Z,51.56
2023-04-07T08:58:04.169Z,51.51
2023-04-07T09:00:34.926Z,51.60
2023-04-07T09:03:05.857Z,51.23
2023-04-07T09:05:36.900Z,51.06
2023-04-07T09:08:07.926Z,50.71
2023-04-07T09:10:39.123Z,50.69
2023-04-07T09:13:10.061Z,50.78
2023-04-07T09:15:41.665Z,51.02
2023-04-07T09:18:12.463Z,50.93
2023-04-07T09:21:01.965Z,50.95
2023-04-07T09:23:36.197Z,50.69
2023-04-07T09:26:20.733Z,50.26
2023-04-07T09:28:53.927Z,49.53
2023-04-07T09:31:28.489Z,50.07
2023-04-07T09:34:05.653Z,50.50
2023-04-07T09:36:36.635Z,50.15
2023-04-07T09:39:11.226Z,49.57
2023-04-07T09:41:41.999Z,49.96
2023-04-07T09:44:12.831Z,49.94
2023-04-07T09:46:51.608Z,49.81
2023-04-07T09:49:22.562Z,49.60
2023-04-07T09:51:57.424Z,49.43
2023-04-07T09:54:37.810Z,49.44
2023-04-07T09:57:09.014Z,48.70
2023-04-07T09:59:41.125Z,48.91
2023-04-07T10:02:12.270Z,48.48
2023-04-07T10:04:43.976Z,48.51
2023-04-07T10:07:14.856Z,48.55
2023-04-07T10:09:45.679Z,48.32
2023-04-07T10:12:16.551Z,48.59
2023-04-07T10:14:47.405Z,48.32
2023-04-07T10:17:19.419Z,48.18
2023-04-07T10:19:50.170Z,47.95
2023-04-07T10:22:21.446Z,47.39
2023-04-07T10:24:56.167Z,47.20
2023-04-07T10:27:31.113Z,47.33
2023-04-07T10:30:01.849Z,47.87
2023-04-07T10:32:32.734Z,47.96
2023-04-07T10:35:03.700Z,47.85
2023-04-07T10:37:34.546Z,47.70
2023-04-07T10:40:18.820Z,47.83
2023-04-07T10:42:49.777Z,47.70
2023-04-07T10:45:20.508Z,47.71
2023-04-07T10:48:08.457Z,47.50
2023-04-07T10:50:39.645Z,47.52
2023-04-07T10:53:10.810Z,47.51
2023-04-07T10:55:41.819Z,47.55
2023-04-07T10:58:19.885Z,47.24
2023-04-07T11:01:08.657Z,46.78
2023-04-07T11:03:40.174Z,47.18
2023-04-07T11:06:11.490Z,47.32
2023-04-07T11:08:43.007Z,47.53
2023-04-07T11:11:14.609Z,47.77
2023-04-07T11:13:46.705Z,47.44
2023-04-07T11:16:18.363Z,47.24
2023-04-07T11:18:49.375Z,47.08
2023-04-07T11:21:23.378Z,47.09
2023-04-07T11:23:54.156Z,47.11
2023-04-07T11:26:25.093Z,46.31
2023-04-07T11:28:58.998Z,46.31
2023-04-07T11:31:31.931Z,46.73
2023-04-07T11:34:05.157Z,46.63
2023-04-07T11:36:36.774Z,46.61
2023-04-07T11:39:08.084Z,46.94
2023-04-07T11:41:46.683Z,46.92
2023-04-07T11:44:17.702Z,46.29
2023-04-07T11:46:58.430Z,46.26
2023-04-07T11:49:29.537Z,46.26
2023-04-07T11:52:01.934Z,45.77
2023-04-07T11:54:41.822Z,45.82
2023-04-07T11:57:13.185Z,45.91
2023-04-07T11:59:44.164Z,46.09
2023-04-07T12:02:21.191Z,45.97
2023-04-07T12:04:58.635Z,45.64
2023-04-07T12:07:29.585Z,45.59
2023-04-07T12:10:01.857Z,45.56
2023-04-07T12:12:33.412Z,45.70
2023-04-07T12:15:04.253Z,45.83
2023-04-07T12:17:35.154Z,45.90
2023-04-07T12:20:06.788Z,45.64
2023-04-07T12:22:37.594Z,45.55
2023-04-07T12:25:09.250Z,45.69
2023-04-07T12:27:43.753Z,45.62
2023-04-07T12:30:15.168Z,45.21
2023-04-07T12:32:46.187Z,45.16
2023-04-07T12:35:17.044Z,45.24
2023-04-07T12:37:49.928Z,45.25
2023-04-07T12:40:21.485Z,45.22
2023-04-07T12:42:52.217Z,45.10
2023-04-07T12:45:23.090Z,45.33
2023-04-07T12:47:54.052Z,45.43
2023-04-07T12:50:25.401Z,45.36
2023-04-07T12:52:56.110Z,45.58
2023-04-07T12:55:26.963Z,45.23
2023-04-07T12:57:57.851Z,45.70
2023-04-07T13:00:28.912Z,45.44
2023-04-07T13:02:59.900Z,45.45
2023-04-07T13:05:31.482Z,45.50
2023-04-07T13:08:02.547Z,45.59
2023-04-07T13:10:33.453Z,45.54
2023-04-07T13:13:04.181Z,45.58
2023-04-07T13:15:34.998Z,45.41
2023-04-07T13:18:05.775Z,45.49
2023-04-07T13:20:36.752Z,45.55
2023-04-07T13:23:09.633Z,45.20
2023-04-07T13:25:41.922Z,45.23
2023-04-07T13:28:12.674Z,45.56
2023-04-07T13:30:43.548Z,45.38
2023-04-07T13:33:14.367Z,45.40
2023-04-07T13:35:45.260Z,45.44
2023-04-07T13:38:16.022Z,45.37
2023-04-07T13:40:49.682Z,45.16
2023-04-07T13:43:20.524Z,45.01
2023-04-07T13:45:51.866Z,44.91
2023-04-07T13:48:22.763Z,45.18
2023-04-07T13:50:53.725Z,45.20
2023-04-07T13:53:25.187Z,45.07
2023-04-07T13:55:55.849Z,44.72
2023-04-07T13:58:26.540Z,44.90
2023-04-07T14:00:57.599Z,45.11
2023-04-07T14:03:29.450Z,45.26
2023-04-07T14:06:01.666Z,45.13
2023-04-07T14:08:32.895Z,45.08
2023-04-07T14:11:03.927Z,45.10
2023-04-07T14:13:34.755Z,45.20
2023-04-07T14:16:06.345Z,45.42
2023-04-07T14:18:37.299Z,45.23
2023-04-07T14:21:08.269Z,45.40
2023-04-07T14:23:39.567Z,45.12
2023-04-07T14:26:12.782Z,45.30
2023-04-07T14:28:43.594Z,45.31
2023-04-07T14:31:17.310Z,45.58
2023-04-07T14:33:48.556Z,45.46
2023-04-07T14:36:19.807Z,45.49
2023-04-07T14:38:51.646Z,45.40
2023-04-07T14:41:22.466Z,45.63
2023-04-07T14:43:56.409Z,45.78
2023-04-07T14:46:27.961Z,45.99
2023-04-07T14:48:59.473Z,46.05
2023-04-07T14:51:30.346Z,45.95
2023-04-07T14:54:01.071Z,46.01
2023-04-07T14:56:31.843Z,45.92
2023-04-07T14:59:03.328Z,46.07
2023-04-07T15:01:34.323Z,45.94
2023-04-07T15:04:05.114Z,46.18
2023-04-07T15:06:35.771Z,46.24
2023-04-07T15:09:07.042Z,46.33
2023-04-07T15:11:37.786Z,46.31
2023-04-07T15:14:08.626Z,46.48
2023-04-07T15:16:39.567Z,46.36
2023-04-07T15:19:10.285Z,46.47
2023-04-07T15:21:41.407Z,46.33
2023-04-07T15:24:13.333Z,46.29
2023-04-07T15:26:45.701Z,46.24
2023-04-07T15:29:16.343Z,46.39
2023-04-07T15:31:47.179Z,46.43
2023-04-07T15:34:17.940Z,46.43
2023-04-07T15:36:48.700Z,46.42
2023-04-07T15:39:19.372Z,46.44
2023-04-07T15:41:50.135Z,46.50
2023-04-07T15:44:20.921Z,46.57
2023-04-07T15:46:51.700Z,46.66
2023-04-07T15:49:24.850Z,46.66
2023-04-07T15:51:57.180Z,46.61
2023-04-07T15:54:28.046Z,46.70
2023-04-07T15:56:58.762Z,46.73
2023-04-07T15:59:31.285Z,46.74
2023-04-07T16:02:02.324Z,46.89
2023-04-07T16:04:33.151Z,46.81
2023-04-07T16:07:03.849Z,46.92
2023-04-07T16:09:34.714Z,47.14
2023-04-07T16:12:06.619Z,46.93
2023-04-07T16:14:37.519Z,47.11
2023-04-07T16:17:08.281Z,47.24
2023-04-07T16:19:39.095Z,47.30
2023-04-07T16:22:09.814Z,47.46
2023-04-07T16:24:40.733Z,47.48
2023-04-07T16:27:11.491Z,47.52
2023-04-07T16:29:42.240Z,47.40
2023-04-07T16:32:13.969Z,47.51
2023-04-07T16:34:44.806Z,47.73
2023-04-07T16:37:15.712Z,47.60
2023-04-07T16:39:46.561Z,47.58
2023-04-07T16:42:17.344Z,47.72
2023-04-07T16:44:47.972Z,47.68
2023-04-07T16:47:18.843Z,47.60
2023-04-07T16:49:49.636Z,47.65
2023-04-07T16:52:20.742Z,47.76
2023-04-07T16:54:51.961Z,47.73
2023-04-07T16:57:22.830Z,47.76
2023-04-07T16:59:53.683Z,47.70
2023-04-07T17:02:24.732Z,47.66
2023-04-07T17:04:55.755Z,47.72
2023-04-07T17:07:26.599Z,47.49
2023-04-07T17:09:57.491Z,47.63
2023-04-07T17:12:28.378Z,47.55
2023-04-07T17:14:59.240Z,47.55
2023-04-07T17:17:30.018Z,47.44
2023-04-07T17:20:00.957Z,47.57
2023-04-07T17:22:31.766Z,47.53
2023-04-07T17:25:02.456Z,47.42
2023-04-07T17:27:33.346Z,47.53
2023-04-07T17:30:05.322Z,47.57
2023-04-07T17:32:36.220Z,47.53
2023-04-07T17:35:07.543Z,47.61
2023-04-07T17:37:39.226Z,47.66
2023-04-07T17:40:11.034Z,47.65
2023-04-07T17:42:41.942Z,47.57
2023-04-07T17:45:12.983Z,47.57
2023-04-07T17:47:46.306Z,47.74
2023-04-07T17:50:17.768Z,47.63
2023-04-07T17:52:48.431Z,47.65
2023-04-07T17:55:19.464Z,47.69
2023-04-07T17:57:50.814Z,47.76
2023-04-07T18:00:22.804Z,47.89
2023-04-07T18:02:53.908Z,47.82
2023-04-07T18:05:28.370Z,47.77
2023-04-07T18:07:59.293Z,47.82
2023-04-07T18:10:30.432Z,47.83
2023-04-07T18:13:03.236Z,48.02
2023-04-07T18:15:34.050Z,47.92
2023-04-07T18:18:04.919Z,47.99
2023-04-07T18:20:36.280Z,48.10
2023-04-07T18:23:07.074Z,48.11
2023-04-07T18:25:37.884Z,48.06
2023-04-07T18:28:08.820Z,47.98
2023-04-07T18:30:39.605Z,48.05
2023-04-07T18:33:10.370Z,47.90
2023-04-07T18:35:41.467Z,48.00
2023-04-07T18:38:12.355Z,48.20
2023-04-07T18:40:44.333Z,47.99
2023-04-07T18:43:16.907Z,48.03
2023-04-07T18:45:48.294Z,48.01
2023-04-07T18:48:19.480Z,47.97
2023-04-07T18:50:53.418Z,48.03
2023-04-07T18:53:24.698Z,48.32
2023-04-07T18:55:55.546Z,48.20
2023-04-07T18:58:26.492Z,48.31
2023-04-07T19:00:58.532Z,48.22
2023-04-07T19:03:29.552Z,48.23
2023-04-07T19:08:33.250Z,48.25
2023-04-07T19:11:03.999Z,48.50
2023-04-07T19:13:34.856Z,48.26
2023-04-07T19:16:07.738Z,48.33
2023-04-07T19:18:38.714Z,48.24
2023-04-07T19:21:09.607Z,48.34
2023-04-07T19:23:42.410Z,48.40
2023-04-07T19:26:14.322Z,48.44
2023-04-07T19:28:45.755Z,48.48
2023-04-07T19:31:16.645Z,48.39
2023-04-07T19:33:49.167Z,48.27
2023-04-07T19:36:20.213Z,48.37
2023-04-07T19:38:51.132Z,48.44
2023-04-07T19:41:22.098Z,48.52
2023-04-07T19:43:53.508Z,48.42
2023-04-07T19:46:24.647Z,48.46
2023-04-07T19:48:55.453Z,48.48
2023-04-07T19:51:26.410Z,48.44
2023-04-07T19:53:57.136Z,48.46
2023-04-07T19:56:28.036Z,48.52
2023-04-07T19:58:58.752Z,48.53
2023-04-07T20:01:29.582Z,48.42
2023-04-07T20:04:00.582Z,48.56
2023-04-07T20:06:33.788Z,48.56
2023-04-07T20:09:04.911Z,48.51
2023-04-07T20:11:35.596Z,48.68
2023-04-07T20:14:06.489Z,48.58
2023-04-07T20:16:37.376Z,48.59
2023-04-07T20:19:08.160Z,48.46
2023-04-07T20:21:38.872Z,48.61
2023-04-07T20:24:10.184Z,48.66
2023-04-07T20:26:40.893Z,48.57
2023-04-07T20:29:11.809Z,48.53
2023-04-07T20:31:42.578Z,48.58
2023-04-07T20:34:13.261Z,48.62
2023-04-07T20:36:44.156Z,48.69
2023-04-07T20:39:15.087Z,48.62
2023-04-07T20:41:46.475Z,48.80
2023-04-07T20:44:17.156Z,48.73
2023-04-07T20:46:48.093Z,48.94
2023-04-07T20:49:18.892Z,48.99
2023-04-07T20:51:49.566Z,49.01
2023-04-07T20:54:20.353Z,48.97
2023-04-07T20:56:51.523Z,49.07
2023-04-07T20:59:22.346Z,49.11
2023-04-07T21:01:53.282Z,49.04
2023-04-07T21:04:25.334Z,49.08
2023-04-07T21:06:56.293Z,49.12
2023-04-07T21:09:27.019Z,49.22
2023-04-07T21:11:57.772Z,49.12
2023-04-07T21:14:28.606Z,49.18
2023-04-07T21:16:59.356Z,49.20
2023-04-07T21:19:30.125Z,49.14
2023-04-07T21:22:01.593Z,49.08
2023-04-07T21:24:32.370Z,49.20
2023-04-07T21:27:03.024Z,49.18
2023-04-07T21:29:33.857Z,49.30
2023-04-07T21:32:05.562Z,49.27
2023-04-07T21:34:36.254Z,49.39
2023-04-07T21:37:07.167Z,49.37
2023-04-07T21:39:37.935Z,49.35
2023-04-07T21:42:08.670Z,49.44
2023-04-07T21:44:39.529Z,49.47
2023-04-07T21:47:10.526Z,49.59
2023-04-07T21:49:41.288Z,49.66
2023-04-07T21:52:11.978Z,49.53
2023-04-07T21:54:42.723Z,49.61
2023-04-07T21:57:13.882Z,49.66
2023-04-07T21:59:44.704Z,49.69
2023-04-07T22:02:15.483Z,49.75
2023-04-07T22:04:46.570Z,49.60
2023-04-07T22:07:17.400Z,49.73
2023-04-07T22:09:48.279Z,49.83
2023-04-07T22:12:19.051Z,49.78
2023-04-07T22:14:49.895Z,49.78
2023-04-07T22:17:20.900Z,49.67
2023-04-07T22:19:51.672Z,49.67
2023-04-07T22:22:22.517Z,49.77
2023-04-07T22:24:53.270Z,49.85
2023-04-07T22:27:23.965Z,49.94
2023-04-07T22:29:54.816Z,50.09
2023-04-07T22:32:25.521Z,50.02
2023-04-07T22:34:56.293Z,50.13
2023-04-07T22:37:27.295Z,50.08
2023-04-07T22:39:58.131Z,50.07
2023-04-07T22:42:29.040Z,50.17
2023-04-07T22:44:59.854Z,50.28
2023-04-07T22:47:30.838Z,50.19
2023-04-07T22:50:02.091Z,50.20
2023-04-07T22:52:32.911Z,50.22
2023-04-07T22:55:03.577Z,50.29
2023-04-07T22:57:34.386Z,50.25
2023-04-07T23:00:05.519Z,50.36
2023-04-07T23:02:36.804Z,50.33
2023-04-07T23:05:10.540Z,50.31
2023-04-07T23:07:41.370Z,50.48
2023-04-07T23:10:12.202Z,50.36
2023-04-07T23:12:43.090Z,50.34
2023-04-07T23:15:14.092Z,50.52
2023-04-07T23:17:44.943Z,50.45
2023-04-07T23:20:15.802Z,50.39
2023-04-07T23:22:46.589Z,50.51
2023-04-07T23:25:17.410Z,50.90
2023-04-07T23:27:48.140Z,50.84
2023-04-07T23:30:18.898Z,51.04
2023-04-07T23:32:49.611Z,50.92
2023-04-07T23:35:20.358Z,50.85
2023-04-07T23:37:51.495Z,51.09
2023-04-07T23:40:22.291Z,51.03
2023-04-07T23:42:53.167Z,51.09
2023-04-07T23:45:24.194Z,51.21
2023-04-07T23:47:54.820Z,50.97
2023-04-07T23:50:25.461Z,51.20
2023-04-07T23:52:56.421Z,51.23
2023-04-07T23:55:27.264Z,51.09
2023-04-07T23:57:58.017Z,51.18
